Time;durP1;ratioP1;P1;durP2;ratioP2;P2;SDS_P1;SDS_P2;PMS_P1;PMS_P2;Temp;Humidity;BMP_temperature;BMP_pressure;BME280_temperature;BME280_humidity;BME280_pressure;Samples;Min_cycle;Max_cycle;Signal;HPM_P1;HPM_P2
2022/06/17 00:00:56;;;;;;;3.05;2.75;;;15.20;81.50;;;;;;5010216;28;20522;-55
2022/06/17 00:03:25;;;;;;;3.65;2.47;;;15.20;82.10;;;;;;5010347;28;20029;-54
2022/06/17 00:05:51;;;;;;;4.25;2.97;;;15.10;82.40;;;;;;5010638;28;20026;-55
2022/06/17 00:08:20;;;;;;;7.05;3.35;;;15.00;82.40;;;;;;5010655;28;20028;-55
2022/06/17 00:10:46;;;;;;;4.18;2.58;;;15.00;82.30;;;;;;5010019;28;20048;-55
2022/06/17 00:13:14;;;;;;;3.33;2.58;;;15.00;81.90;;;;;;5010706;28;20427;-55
2022/06/17 00:15:39;;;;;;;4.18;2.75;;;15.00;82.50;;;;;;5010136;28;20422;-55
2022/06/17 00:18:05;;;;;;;3.83;2.50;;;15.00;82.60;;;;;;5010462;28;20018;-54
2022/06/17 00:20:33;;;;;;;3.28;2.38;;;14.90;82.60;;;;;;5009871;28;20033;-55
2022/06/17 00:22:58;;;;;;;4.15;2.70;;;14.90;82.60;;;;;;5010452;28;20169;-55
2022/06/17 00:25:28;;;;;;;4.75;2.78;;;14.80;82.60;;;;;;5010495;28;20392;-55
2022/06/17 00:27:55;;;;;;;5.43;2.85;;;14.80;83.10;;;;;;5010512;28;20034;-55
2022/06/17 00:30:24;;;;;;;3.65;2.80;;;14.80;83.40;;;;;;5009534;28;20146;-54
2022/06/17 00:33:01;;;;;;;3.03;2.08;;;14.80;83.80;;;;;;5010313;28;20030;-54
2022/06/17 00:35:50;;;;;;;4.13;2.22;;;14.70;84.30;;;;;;5010206;28;20032;-55
2022/06/17 00:38:21;;;;;;;3.95;2.60;;;14.60;84.00;;;;;;5008772;28;20411;-54
2022/06/17 00:40:47;;;;;;;3.80;2.17;;;14.60;84.40;;;;;;5009487;28;20026;-55
2022/06/17 00:43:27;;;;;;;3.42;2.50;;;14.60;85.10;;;;;;5010346;28;20184;-55
2022/06/17 00:46:10;;;;;;;3.30;2.10;;;14.50;85.40;;;;;;5010240;28;20029;-55
2022/06/17 00:48:55;;;;;;;7.20;1.90;;;14.40;85.50;;;;;;5010163;28;20030;-55
2022/06/17 00:51:24;;;;;;;4.55;2.78;;;14.30;86.30;;;;;;5009377;28;20026;-55
2022/06/17 00:53:59;;;;;;;6.43;2.85;;;14.30;86.60;;;;;;5010132;28;20383;-55
2022/06/17 00:56:35;;;;;;;14.55;2.92;;;14.30;86.70;;;;;;5008864;28;20026;-54
2022/06/17 00:59:02;;;;;;;4.15;2.70;;;14.20;87.60;;;;;;5010093;28;20022;-55
2022/06/17 01:01:39;;;;;;;4.40;2.20;;;14.20;88.10;;;;;;5009265;28;20317;-55
2022/06/17 01:04:09;;;;;;;4.90;2.50;;;14.20;88.80;;;;;;5010019;28;20033;-55
2022/06/17 01:06:39;;;;;;;4.10;2.47;;;14.20;89.30;;;;;;5010264;28;20018;-55
2022/06/17 01:12:00;;;;;;;5.60;2.58;;;13.90;90.60;;;;;;5009880;28;20095;-55
2022/06/17 01:14:27;;;;;;;2.88;2.15;;;13.80;91.20;;;;;;5010013;28;20033;-55
2022/06/17 01:16:55;;;;;;;3.30;2.25;;;13.80;91.60;;;;;;5013906;28;20446;-55
2022/06/17 01:19:34;;;;;;;4.88;3.00;;;13.80;91.80;;;;;;5013759;28;20014;-55
2022/06/17 01:22:25;;;;;;;3.53;2.63;;;13.80;92.10;;;;;;5013809;28;20075;-55
2022/06/17 01:24:52;;;;;;;;;;;13.80;92.40;;;;;;5014252;28;20034;-54
2022/06/17 01:27:23;;;;;;;4.45;2.58;;;13.70;92.70;;;;;;5013799;28;19905;-55
2022/06/17 01:29:48;;;;;;;3.53;2.30;;;13.70;93.20;;;;;;5012135;28;20106;-54
2022/06/17 01:32:16;;;;;;;4.00;2.53;;;13.70;93.30;;;;;;5013707;28;20030;-54
2022/06/17 01:34:42;;;;;;;3.58;2.45;;;13.70;93.70;;;;;;5013478;28;20026;-55
2022/06/17 01:37:09;;;;;;;4.57;2.53;;;13.50;94.10;;;;;;5013476;28;20025;-55
2022/06/17 01:39:35;;;;;;;6.60;3.30;;;13.50;94.30;;;;;;5012930;28;20030;-54
2022/06/17 01:42:00;;;;;;;3.20;2.50;;;13.50;94.60;;;;;;5013361;28;20031;-55
2022/06/17 01:44:35;;;;;;;6.72;2.83;;;13.50;94.70;;;;;;5013508;28;20034;-54
2022/06/17 01:47:05;;;;;;;5.43;2.50;;;13.50;94.90;;;;;;5013429;28;20018;-55
2022/06/17 01:49:36;;;;;;;5.05;2.30;;;13.40;95.50;;;;;;5013030;28;20029;-55
2022/06/17 01:52:03;;;;;;;3.17;2.40;;;13.40;95.60;;;;;;5013276;28;20034;-55
2022/06/17 01:54:36;;;;;;;3.38;2.53;;;13.40;95.80;;;;;;5013113;28;20021;-55
2022/06/17 01:57:04;;;;;;;5.15;2.60;;;13.30;96.40;;;;;;5013290;28;20030;-55
2022/06/17 01:59:35;;;;;;;3.78;2.40;;;13.20;96.80;;;;;;5012737;28;20017;-54
2022/06/17 02:02:03;;;;;;;4.88;2.75;;;13.10;96.70;;;;;;5013032;28;20026;-55
2022/06/17 02:04:33;;;;;;;3.35;2.45;;;13.00;97.40;;;;;;5012967;28;20492;-54
2022/06/17 02:07:22;;;;;;;5.05;2.42;;;12.90;98.40;;;;;;5012877;28;20088;-55
2022/06/17 02:09:48;;;;;;;2.92;2.63;;;12.70;98.60;;;;;;5012332;28;20041;-55
2022/06/17 02:12:16;;;;;;;2.10;1.98;;;12.60;99.60;;;;;;5013260;28;20036;-54
2022/06/17 02:14:42;;;;;;;3.05;2.20;;;12.60;99.90;;;;;;5012661;28;20034;-54
2022/06/17 02:17:08;;;;;;;6.60;2.65;;;12.60;99.90;;;;;;5013106;28;20108;-54
2022/06/17 02:19:37;;;;;;;3.80;2.72;;;12.60;99.90;;;;;;5010801;28;20061;-55
2022/06/17 02:22:25;;;;;;;4.10;2.70;;;12.60;99.90;;;;;;5012510;28;20034;-54
2022/06/17 02:24:55;;;;;;;4.03;3.00;;;12.60;99.90;;;;;;5012530;28;20018;-54
2022/06/17 02:27:22;;;;;;;3.27;2.83;;;12.70;99.90;;;;;;5012245;28;20030;-54
2022/06/17 02:29:49;;;;;;;7.60;3.88;;;12.70;99.90;;;;;;5012022;28;20030;-54
2022/06/17 02:32:16;;;;;;;6.88;3.50;;;12.70;99.90;;;;;;5012603;28;20456;-54
2022/06/17 02:34:58;;;;;;;10.80;3.45;;;12.70;99.90;;;;;;5012589;28;20064;-54
2022/06/17 02:37:25;;;;;;;8.75;3.67;;;12.70;99.90;;;;;;5011120;28;20022;-55
2022/06/17 02:39:51;;;;;;;10.25;3.17;;;12.70;99.90;;;;;;5011796;28;20036;-54
2022/06/17 02:42:22;;;;;;;4.35;2.65;;;12.70;99.90;;;;;;5012248;28;20503;-55
2022/06/17 02:44:51;;;;;;;6.50;3.53;;;12.60;99.90;;;;;;5012575;28;20382;-54
2022/06/17 02:47:17;;;;;;;5.05;2.67;;;12.70;99.90;;;;;;5012204;28;20030;-54
2022/06/17 02:49:43;;;;;;;7.60;3.38;;;12.70;99.90;;;;;;5011609;28;20030;-55
2022/06/17 02:52:23;;;;;;;4.90;3.30;;;12.70;99.90;;;;;;5012261;28;20037;-54
2022/06/17 02:54:57;;;;;;;3.58;3.03;;;12.70;99.90;;;;;;5012307;28;20386;-54
2022/06/17 02:57:27;;;;;;;7.25;3.22;;;12.70;99.90;;;;;;5012022;28;20030;-54
2022/06/17 03:00:13;;;;;;;5.47;3.58;;;12.70;99.90;;;;;;5011211;28;20018;-55
2022/06/17 03:02:42;;;;;;;5.30;3.30;;;12.70;99.90;;;;;;5011461;28;20133;-54
2022/06/17 03:05:26;;;;;;;5.32;3.05;;;12.70;99.90;;;;;;5011821;28;20021;-54
2022/06/17 03:07:53;;;;;;;4.70;3.22;;;12.60;99.90;;;;;;5011987;28;20080;-55
2022/06/17 03:10:31;;;;;;;4.30;3.10;;;12.50;99.90;;;;;;5011179;28;20077;-54
2022/06/17 03:13:12;;;;;;;5.72;3.17;;;12.50;99.90;;;;;;5011751;28;20061;-55
2022/06/17 03:15:43;;;;;;;4.40;3.13;;;12.40;99.90;;;;;;5011623;28;20233;-55
2022/06/17 03:18:09;;;;;;;3.30;2.90;;;12.40;99.90;;;;;;5011624;28;20022;-55
2022/06/17 03:20:37;;;;;;;3.90;2.80;;;12.40;99.90;;;;;;5011071;28;20037;-55
2022/06/17 03:23:12;;;;;;;3.85;3.10;;;12.40;99.90;;;;;;5011328;28;20024;-54
2022/06/17 03:25:58;;;;;;;5.50;3.20;;;12.30;99.90;;;;;;5011428;28;20026;-54
2022/06/17 03:28:30;;;;;;;5.65;3.33;;;12.30;99.90;;;;;;5011657;28;20025;-54
2022/06/17 03:31:09;;;;;;;5.55;3.28;;;12.30;99.90;;;;;;5011109;28;20411;-54
2022/06/17 03:33:44;;;;;;;8.10;4.18;;;12.30;99.90;;;;;;5011288;28;20201;-54
2022/06/17 03:36:21;;;;;;;4.60;3.33;;;12.40;99.90;;;;;;5011413;28;20032;-53
2022/06/17 03:38:52;;;;;;;7.07;3.50;;;12.40;99.90;;;;;;5010605;28;20569;-54
2022/06/17 03:41:29;;;;;;;9.25;3.13;;;12.40;99.90;;;;;;5009294;28;20026;-54
2022/06/17 03:44:13;;;;;;;5.45;3.30;;;12.40;99.90;;;;;;5010965;28;20072;-54
2022/06/17 03:46:49;;;;;;;3.50;3.15;;;12.50;99.90;;;;;;5011091;28;20095;-55
2022/06/17 03:49:21;;;;;;;6.68;3.75;;;12.40;99.90;;;;;;5011125;28;20544;-55
2022/06/17 03:51:53;;;;;;;7.30;3.83;;;12.50;99.90;;;;;;5010448;28;20053;-55
2022/06/17 03:54:18;;;;;;;6.70;3.17;;;12.50;99.90;;;;;;5010837;28;20411;-55
2022/06/17 03:56:51;;;;;;;5.13;3.60;;;12.50;99.90;;;;;;5010876;28;20022;-54
2022/06/17 03:59:24;;;;;;;4.00;3.58;;;12.50;99.90;;;;;;5010752;28;20076;-54
2022/06/17 04:02:04;;;;;;;6.35;3.30;;;12.50;99.90;;;;;;5010474;28;20030;-54
2022/06/17 04:04:34;;;;;;;4.10;2.95;;;12.50;99.90;;;;;;5009436;28;20557;-54
2022/06/17 04:07:00;;;;;;;5.32;3.80;;;12.50;99.90;;;;;;5010547;28;20045;-54
2022/06/17 04:09:39;;;;;;;6.82;3.80;;;12.60;99.90;;;;;;5010452;28;20407;-54
2022/06/17 04:12:14;;;;;;;7.15;4.07;;;12.60;99.90;;;;;;5009481;28;20506;-54
2022/06/17 04:14:57;;;;;;;5.15;3.95;;;12.80;99.90;;;;;;5010492;28;20733;-54
2022/06/17 04:17:39;;;;;;;7.72;4.40;;;12.80;99.90;;;;;;5010498;28;20026;-54
2022/06/17 04:20:26;;;;;;;5.80;4.05;;;12.90;99.90;;;;;;5010114;28;20014;-54
2022/06/17 04:22:58;;;;;;;7.13;3.92;;;13.00;99.90;;;;;;5010544;28;20080;-54
2022/06/17 04:25:47;;;;;;;6.53;4.53;;;13.00;99.90;;;;;;5010467;28;20034;-54
2022/06/17 04:28:18;;;;;;;6.22;4.38;;;13.10;99.90;;;;;;5010716;28;20034;-54
2022/06/17 04:30:55;;;;;;;7.18;4.68;;;13.20;99.90;;;;;;5009721;28;20056;-54
2022/06/17 04:33:26;;;;;;;7.93;4.22;;;13.30;99.90;;;;;;5010464;28;20029;-54
2022/06/17 04:36:08;;;;;;;6.40;4.82;;;13.30;99.90;;;;;;5009014;28;20022;-54
2022/06/17 04:38:45;;;;;;;8.85;5.55;;;13.40;99.90;;;;;;5010439;28;20026;-55
2022/06/17 04:41:13;;;;;;;9.07;5.18;;;13.50;99.90;;;;;;5010304;28;20025;-55
2022/06/17 04:43:47;;;;;;;7.30;4.45;;;13.60;99.90;;;;;;5010790;28;20026;-55
2022/06/17 04:46:18;;;;;;;8.50;4.47;;;13.60;99.90;;;;;;5010406;28;20022;-55
2022/06/17 04:48:44;;;;;;;7.72;3.97;;;13.70;99.90;;;;;;5010087;28;20084;-55
2022/06/17 04:51:10;;;;;;;6.35;4.55;;;13.70;99.90;;;;;;5009478;28;20025;-55
2022/06/17 04:53:38;;;;;;;7.35;4.20;;;13.70;99.90;;;;;;5009691;28;20030;-55
2022/06/17 04:56:08;;;;;;;6.38;3.72;;;13.90;99.90;;;;;;5010084;28;20018;-55
2022/06/17 04:58:33;;;;;;;5.88;3.78;;;13.90;99.90;;;;;;5009963;28;20423;-55
2022/06/17 05:00:59;;;;;;;6.45;4.30;;;14.00;99.90;;;;;;5009320;28;20037;-55
2022/06/17 05:03:29;;;;;;;5.30;4.22;;;14.10;99.90;;;;;;5010066;28;20116;-55
2022/06/17 05:05:55;;;;;;;6.65;4.50;;;14.10;99.90;;;;;;5010177;28;20029;-56
2022/06/17 05:08:32;;;;;;;11.48;4.30;;;14.20;99.90;;;;;;5010080;28;20116;-55
2022/06/17 05:11:26;;;;;;;9.45;4.97;;;14.30;99.90;;;;;;5009244;28;20027;-55
2022/06/17 05:14:01;;;;;;;10.73;5.40;;;14.30;99.90;;;;;;5009809;28;20033;-55
2022/06/17 05:16:26;;;;;;;6.03;3.95;;;14.40;99.90;;;;;;5009889;28;20041;-55
2022/06/17 05:18:52;;;;;;;5.63;3.90;;;14.50;99.90;;;;;;5009987;28;20395;-55
2022/06/17 05:21:23;;;;;;;9.43;4.53;;;14.50;99.90;;;;;;5009298;28;20060;-55
2022/06/17 05:23:51;;;;;;;9.35;4.70;;;14.60;99.90;;;;;;5009796;28;20034;-54
2022/06/17 05:26:17;;;;;;;9.57;5.07;;;14.70;99.70;;;;;;5009527;28;20115;-54
2022/06/17 05:28:43;;;;;;;6.10;4.22;;;14.70;99.50;;;;;;5009656;28;20113;-55
2022/06/17 05:31:13;;;;;;;11.40;3.97;;;14.80;99.40;;;;;;5009364;28;20113;-54
2022/06/17 05:33:39;;;;;;;10.20;4.65;;;14.80;99.30;;;;;;5009790;28;20044;-54
2022/06/17 05:36:05;;;;;;;8.55;4.20;;;14.90;99.30;;;;;;5009548;28;20387;-54
2022/06/17 05:38:30;;;;;;;9.20;4.35;;;15.00;99.50;;;;;;5009454;28;20025;-54
2022/06/17 05:40:56;;;;;;;6.72;3.92;;;15.00;99.30;;;;;;5009224;28;20022;-54
2022/06/17 05:43:22;;;;;;;7.72;4.22;;;15.00;99.20;;;;;;5009551;28;20072;-54
2022/06/17 05:45:47;;;;;;;10.13;6.57;;;15.10;99.40;;;;;;5009698;28;20398;-54
2022/06/17 05:48:13;;;;;;;6.60;4.47;;;15.20;99.20;;;;;;5009520;28;20041;-54
2022/06/17 05:50:38;;;;;;;6.90;4.57;;;15.20;99.10;;;;;;5008886;28;20216;-54
2022/06/17 05:53:07;;;;;;;8.20;4.63;;;15.30;98.90;;;;;;5009397;28;20072;-54
2022/06/17 05:55:35;;;;;;;11.38;5.60;;;15.40;98.70;;;;;;5009391;28;20036;-54
2022/06/17 05:58:01;;;;;;;7.35;5.00;;;15.50;98.50;;;;;;5009453;28;20395;-54
2022/06/17 06:00:28;;;;;;;11.05;5.35;;;15.60;98.40;;;;;;5009062;28;20097;-55
2022/06/17 06:03:00;;;;;;;9.77;4.38;;;15.60;98.10;;;;;;5013100;28;20036;-54
2022/06/17 06:05:28;;;;;;;9.80;4.68;;;15.70;97.80;;;;;;5013057;28;20038;-54
2022/06/17 06:07:54;;;;;;;9.18;4.85;;;15.80;97.60;;;;;;5012888;28;20041;-55
2022/06/17 06:10:19;;;;;;;9.18;4.28;;;15.90;97.20;;;;;;5012302;28;20026;-54
2022/06/17 06:12:56;;;;;;;11.48;5.07;;;16.00;97.30;;;;;;5012850;28;20033;-54
2022/06/17 06:15:30;;;;;;;6.40;4.22;;;16.10;97.20;;;;;;5012700;28;20030;-54
2022/06/17 06:17:55;;;;;;;10.85;4.47;;;16.10;97.00;;;;;;5011771;28;20084;-54
2022/06/17 06:20:21;;;;;;;5.45;3.58;;;16.20;96.70;;;;;;5012291;28;20030;-54
2022/06/17 06:22:47;;;;;;;5.47;4.35;;;16.20;96.60;;;;;;5012840;28;20030;-54
2022/06/17 06:25:14;;;;;;;5.85;4.07;;;16.30;96.20;;;;;;5012689;28;20036;-54
2022/06/17 06:27:40;;;;;;;7.10;4.07;;;16.40;96.00;;;;;;5012573;28;20064;-54
2022/06/17 06:30:06;;;;;;;7.07;4.05;;;16.50;95.20;;;;;;5011960;28;20077;-54
2022/06/17 06:32:32;;;;;;;12.23;4.55;;;16.60;95.10;;;;;;5012552;28;20121;-54
2022/06/17 06:34:57;;;;;;;8.43;4.05;;;16.70;94.80;;;;;;5012494;28;20057;-54
2022/06/17 06:37:23;;;;;;;10.68;4.20;;;16.80;95.00;;;;;;5012511;28;20026;-54
2022/06/17 06:39:48;;;;;;;5.88;4.03;;;16.90;95.50;;;;;;5012156;28;20065;-54
2022/06/17 06:42:14;;;;;;;6.97;4.00;;;17.00;94.50;;;;;;5012402;28;20026;-54
2022/06/17 06:44:41;;;;;;;9.95;4.45;;;17.10;94.60;;;;;;5012612;28;20468;-54
2022/06/17 06:47:07;;;;;;;6.97;3.53;;;17.20;94.50;;;;;;5012229;28;20112;-54
2022/06/17 06:49:33;;;;;;;9.80;4.63;;;17.30;94.60;;;;;;5011468;28;20508;-55
2022/06/17 06:51:58;;;;;;;6.97;4.72;;;17.30;93.60;;;;;;5012233;28;20041;-55
2022/06/17 06:54:24;;;;;;;12.25;4.68;;;17.40;93.30;;;;;;5011871;28;20408;-55
2022/06/17 06:56:49;;;;;;;5.05;4.03;;;17.50;93.10;;;;;;5012069;28;20021;-54
2022/06/17 06:59:15;;;;;;;11.23;4.68;;;17.50;92.40;;;;;;5011908;28;20407;-55
2022/06/17 07:01:40;;;;;;;5.47;3.90;;;17.70;92.20;;;;;;5011247;28;20065;-55
2022/06/17 07:04:06;;;;;;;7.95;4.35;;;17.70;91.80;;;;;;5011766;28;20353;-55
2022/06/17 07:06:34;;;;;;;8.90;3.42;;;17.80;91.70;;;;;;5011802;28;20280;-54
2022/06/17 07:08:59;;;;;;;7.35;3.97;;;17.90;91.40;;;;;;5012175;28;20479;-55
2022/06/17 07:11:26;;;;;;;10.30;3.85;;;18.00;91.60;;;;;;5010994;28;20042;-55
2022/06/17 07:13:52;;;;;;;9.75;4.88;;;18.10;91.00;;;;;;5010520;28;20033;-55
2022/06/17 07:16:17;;;;;;;7.53;3.95;;;18.20;90.70;;;;;;5011483;28;20029;-55
2022/06/17 07:18:43;;;;;;;7.25;4.13;;;18.30;90.60;;;;;;5011490;28;20422;-55
2022/06/17 07:21:12;;;;;;;6.63;3.80;;;18.40;88.70;;;;;;5010902;28;20033;-55
2022/06/17 07:23:42;;;;;;;8.55;4.38;;;18.40;89.60;;;;;;5011624;28;20025;-55
2022/06/17 07:26:19;;;;;;;10.95;4.78;;;18.50;89.20;;;;;;5011482;28;20110;-55
2022/06/17 07:28:46;;;;;;;8.95;4.38;;;18.60;86.80;;;;;;5011414;28;20531;-55
2022/06/17 07:31:12;;;;;;;8.95;3.95;;;18.70;86.10;;;;;;5009285;28;20126;-55
2022/06/17 07:33:38;;;;;;;7.40;4.20;;;18.80;85.30;;;;;;5010029;28;20128;-55
2022/06/17 07:36:05;;;;;;;6.95;3.85;;;18.90;84.90;;;;;;5011529;28;20025;-56
2022/06/17 07:41:21;;;;;;;7.38;3.85;;;19.10;85.80;;;;;;5010799;28;20542;-55
2022/06/17 07:43:47;;;;;;;5.53;3.40;;;19.30;85.30;;;;;;5009746;28;20104;-55
2022/06/17 07:46:12;;;;;;;7.75;3.28;;;19.50;84.80;;;;;;5011316;28;20480;-55
2022/06/17 07:48:39;;;;;;;5.25;3.75;;;19.60;84.10;;;;;;5011055;28;20026;-55
2022/06/17 07:51:07;;;;;;;9.02;3.72;;;19.70;83.10;;;;;;5010440;28;20392;-55
2022/06/17 07:53:35;;;;;;;9.50;4.25;;;19.90;82.20;;;;;;5009675;28;20029;-55
2022/06/17 07:56:03;;;;;;;4.25;3.65;;;20.00;80.80;;;;;;5010837;28;20022;-55
2022/06/17 07:58:28;;;;;;;6.00;3.50;;;20.10;81.90;;;;;;5010983;28;20026;-55
2022/06/17 08:00:55;;;;;;;9.98;4.22;;;20.40;81.00;;;;;;5010134;28;20482;-55
2022/06/17 08:03:21;;;;;;;9.25;3.70;;;20.60;80.20;;;;;;5010810;28;20040;-55
2022/06/17 08:05:50;;;;;;;8.38;3.05;;;20.60;79.10;;;;;;5010832;28;20048;-54
2022/06/17 08:08:23;;;;;;;7.57;3.47;;;21.00;80.00;;;;;;5010628;28;20048;-54
2022/06/17 08:10:54;;;;;;;8.60;3.17;;;21.30;77.40;;;;;;5008693;28;20033;-55
2022/06/17 08:13:20;;;;;;;5.20;3.58;;;22.30;76.00;;;;;;5010670;28;20022;-55
2022/06/17 08:15:48;;;;;;;4.43;2.55;;;23.10;70.40;;;;;;5010496;28;20033;-55
2022/06/17 08:18:14;;;;;;;4.10;2.38;;;24.10;70.60;;;;;;5010539;28;20467;-55
2022/06/17 08:20:39;;;;;;;6.63;3.33;;;25.40;65.90;;;;;;5008509;28;20121;-55
2022/06/17 08:23:06;;;;;;;5.15;2.90;;;26.80;62.20;;;;;;5010310;28;20037;-56
2022/06/17 08:25:33;;;;;;;7.35;2.63;;;27.30;58.40;;;;;;5010201;28;20064;-55
2022/06/17 08:28:03;;;;;;;4.88;2.65;;;28.20;56.80;;;;;;5010538;28;20122;-56
2022/06/17 08:30:31;;;;;;;7.30;2.15;;;28.20;54.20;;;;;;5009675;28;20032;-60
2022/06/17 08:32:57;;;;;;;4.60;2.38;;;29.30;53.30;;;;;;5010411;28;20038;-56
2022/06/17 08:35:29;;;;;;;6.55;2.22;;;29.40;51.40;;;;;;5010670;28;20021;-56
2022/06/17 08:37:57;;;;;;;2.95;2.10;;;29.70;51.50;;;;;;5010240;28;20026;-56
2022/06/17 08:40:34;;;;;;;4.50;2.00;;;30.50;50.20;;;;;;5009707;28;20042;-56
2022/06/17 08:43:22;;;;;;;8.55;2.42;;;30.80;49.40;;;;;;5010388;28;20033;-56
2022/06/17 08:46:13;;;;;;;4.32;1.70;;;31.00;49.90;;;;;;5010216;28;20041;-56
2022/06/17 08:48:57;;;;;;;2.63;1.77;;;31.70;46.90;;;;;;5010342;28;20462;-59
2022/06/17 08:51:47;;;;;;;3.67;1.80;;;32.20;47.00;;;;;;5009548;28;20108;-56
2022/06/17 08:54:36;;;;;;;3.63;1.80;;;32.50;45.60;;;;;;5010013;28;20030;-56
2022/06/17 08:57:19;;;;;;;6.35;2.20;;;33.00;45.60;;;;;;5010210;28;20030;-56
2022/06/17 09:00:08;;;;;;;3.80;1.83;;;33.30;45.00;;;;;;5009706;28;20469;-56
2022/06/17 09:02:51;;;;;;;4.15;1.70;;;34.00;43.90;;;;;;5010522;28;20460;-56
2022/06/17 09:05:48;;;;;;;3.42;1.75;;;34.40;43.10;;;;;;5009979;28;20486;-56
2022/06/17 09:08:23;;;;;;;4.50;2.22;;;34.40;43.10;;;;;;5009968;28;20041;-56
2022/06/17 09:11:05;;;;;;;4.47;1.80;;;34.50;41.80;;;;;;5009318;28;20587;-55
2022/06/17 09:13:42;;;;;;;3.50;1.70;;;34.00;42.00;;;;;;5009901;28;20080;-57
2022/06/17 09:16:28;;;;;;;5.13;1.58;;;34.80;40.80;;;;;;5009810;28;20034;-55
2022/06/17 09:19:02;;;;;;;2.55;1.45;;;34.70;41.80;;;;;;5009901;28;20293;-56
2022/06/17 09:21:34;;;;;;;2.95;1.40;;;34.40;41.80;;;;;;5009119;28;20050;-56
2022/06/17 09:24:06;;;;;;;2.25;1.52;;;34.50;42.70;;;;;;5009855;28;20025;-55
2022/06/17 09:26:58;;;;;;;4.28;2.08;;;35.20;40.20;;;;;;5009820;28;20022;-55
2022/06/17 09:29:44;;;;;;;3.63;1.50;;;34.60;41.60;;;;;;5004224;28;20435;-55
2022/06/17 09:32:25;;;;;;;5.28;1.60;;;35.20;40.80;;;;;;5008729;28;20048;-55
2022/06/17 09:35:08;;;;;;;3.50;1.40;;;35.00;41.00;;;;;;5009875;28;20386;-55
2022/06/17 09:37:51;;;;;;;3.38;1.85;;;34.20;41.30;;;;;;5013377;28;20018;-55
2022/06/17 09:40:23;;;;;;;2.45;1.50;;;34.20;41.60;;;;;;5013347;28;20079;-55
2022/06/17 09:43:19;;;;;;;3.30;1.70;;;33.60;42.10;;;;;;5013495;28;20062;-56
2022/06/17 09:45:57;;;;;;;4.13;1.70;;;33.50;42.40;;;;;;5013339;28;20032;-56
2022/06/17 09:48:33;;;;;;;5.47;1.70;;;33.20;43.30;;;;;;5013412;28;20018;-55
2022/06/17 09:51:07;;;;;;;2.33;1.75;;;33.10;43.00;;;;;;5012870;28;20438;-57
2022/06/17 09:53:42;;;;;;;4.97;2.00;;;33.20;41.80;;;;;;5013181;28;20025;-55
2022/06/17 09:56:17;;;;;;;3.10;1.90;;;32.70;42.80;;;;;;5013259;28;20030;-56
2022/06/17 09:59:00;;;;;;;3.15;1.55;;;32.30;42.80;;;;;;5013300;28;20073;-55
2022/06/17 10:01:26;;;;;;;5.50;2.10;;;31.60;42.90;;;;;;5012696;28;20022;-55
2022/06/17 10:03:51;;;;;;;3.78;2.00;;;31.70;43.20;;;;;;5013139;28;20383;-55
2022/06/17 10:06:40;;;;;;;2.20;1.42;;;30.40;43.70;;;;;;5013051;28;20105;-55
2022/06/17 10:09:25;;;;;;;4.32;2.10;;;30.40;45.10;;;;;;5013053;28;20610;-56
2022/06/17 10:12:27;;;;;;;4.15;1.77;;;29.20;45.60;;;;;;5013083;28;20415;-55
2022/06/17 10:15:33;;;;;;;4.50;1.70;;;29.10;47.40;;;;;;5013024;28;20101;-55
2022/06/17 10:18:33;;;;;;;2.78;2.30;;;29.30;46.70;;;;;;5012937;28;20021;-55
2022/06/17 10:21:21;;;;;;;2.85;1.98;;;29.90;46.30;;;;;;5012262;28;20018;-56
2022/06/17 10:24:04;;;;;;;2.72;1.50;;;30.00;46.40;;;;;;5013276;28;20030;-54
2022/06/17 10:27:01;;;;;;;3.40;1.67;;;30.20;46.00;;;;;;5011624;28;20403;-54
2022/06/17 10:29:49;;;;;;;3.97;2.40;;;30.70;45.70;;;;;;5012253;28;20022;-54
2022/06/17 10:32:15;;;;;;;2.53;1.70;;;30.40;45.40;;;;;;5006755;28;20292;-54
2022/06/17 10:34:43;;;;;;;2.17;1.85;;;30.30;45.90;;;;;;5012313;28;20112;-54
2022/06/17 10:37:09;;;;;;;2.17;1.58;;;30.30;46.00;;;;;;5012398;28;20080;-55
2022/06/17 10:39:36;;;;;;;2.83;1.60;;;31.00;44.40;;;;;;5010544;28;20029;-55
2022/06/17 10:42:05;;;;;;;2.92;1.60;;;31.80;43.70;;;;;;5012226;28;20109;-55
2022/06/17 10:44:31;;;;;;;2.17;1.65;;;31.90;44.30;;;;;;5012229;28;20024;-55
2022/06/17 10:47:27;;;;;;;3.30;1.90;;;31.90;43.60;;;;;;5011968;28;20530;-55
2022/06/17 10:49:59;;;;;;;2.58;1.63;;;32.00;43.80;;;;;;5011469;28;20038;-55
2022/06/17 10:52:57;;;;;;;3.83;1.60;;;32.60;42.80;;;;;;5011989;28;20022;-55
2022/06/17 10:55:31;;;;;;;4.65;1.95;;;32.30;43.60;;;;;;5011731;28;20038;-55
2022/06/17 10:58:16;;;;;;;4.28;1.58;;;33.00;43.30;;;;;;5010711;28;20022;-55
2022/06/17 11:01:07;;;;;;;2.65;1.63;;;32.90;42.90;;;;;;5011559;28;20428;-55
2022/06/17 11:03:35;;;;;;;5.47;1.85;;;31.90;43.60;;;;;;5007234;28;20281;-55
2022/06/17 11:06:15;;;;;;;2.53;1.60;;;31.10;44.80;;;;;;5011832;28;20448;-55
2022/06/17 11:08:49;;;;;;;2.67;1.50;;;31.20;44.60;;;;;;5011807;28;20117;-55
2022/06/17 11:14:46;;;;;;;1.52;1.42;;;31.20;44.70;;;;;;5011752;28;20036;-55
2022/06/17 11:17:35;;;;;;;3.25;1.95;;;31.60;44.70;;;;;;5004325;28;20038;-55
2022/06/17 11:20:06;;;;;;;3.97;1.92;;;32.60;45.60;;;;;;5010898;28;20041;-56
2022/06/17 11:22:34;;;;;;;2.38;1.67;;;32.70;42.60;;;;;;5011536;28;20036;-56
2022/06/17 11:25:06;;;;;;;4.00;1.50;;;32.60;42.90;;;;;;5010177;28;20029;-56
2022/06/17 11:27:41;;;;;;;4.53;1.58;;;32.60;43.30;;;;;;5011484;28;20030;-56
2022/06/17 11:30:24;;;;;;;4.78;1.92;;;33.00;43.80;;;;;;5010751;28;20030;-56
2022/06/17 11:32:50;;;;;;;2.20;1.55;;;33.00;43.70;;;;;;5011354;28;20030;-56
2022/06/17 11:35:34;;;;;;;2.05;1.40;;;32.20;44.10;;;;;;5011292;28;20088;-56
2022/06/17 11:38:03;;;;;;;4.85;1.70;;;32.00;43.30;;;;;;5011227;28;20022;-56
2022/06/17 11:40:33;;;;;;;1.83;1.30;;;31.30;43.70;;;;;;5010434;28;20022;-56
2022/06/17 11:43:02;;;;;;;4.63;1.95;;;31.30;44.70;;;;;;5011197;28;20030;-56
2022/06/17 11:45:29;;;;;;;3.92;1.63;;;32.10;44.80;;;;;;5011308;28;20036;-56
2022/06/17 11:47:59;;;;;;;3.88;1.90;;;33.10;45.00;;;;;;5011101;28;20022;-56
2022/06/17 11:50:37;;;;;;;2.92;2.00;;;32.10;43.30;;;;;;5010799;28;20060;-56
2022/06/17 11:53:08;;;;;;;4.43;1.45;;;31.80;44.30;;;;;;5010979;28;20660;-56
2022/06/17 11:55:47;;;;;;;5.78;1.70;;;32.10;44.70;;;;;;5010842;28;20024;-55
2022/06/17 11:58:17;;;;;;;2.90;1.50;;;33.00;43.90;;;;;;5010713;28;20030;-55
2022/06/17 12:00:51;;;;;;;7.20;1.55;;;33.10;43.90;;;;;;5010241;28;20025;-55
2022/06/17 12:03:39;;;;;;;2.55;1.48;;;32.50;43.20;;;;;;5009653;28;20034;-56
2022/06/17 12:06:17;;;;;;;2.38;1.98;;;32.30;44.20;;;;;;5011207;28;20026;-55
2022/06/17 12:08:53;;;;;;;2.05;1.55;;;32.50;43.50;;;;;;5010986;28;20105;-56
2022/06/17 12:11:33;;;;;;;1.55;1.20;;;32.60;43.40;;;;;;5010319;28;20048;-55
2022/06/17 12:14:00;;;;;;;;;;;32.90;43.20;;;;;;5010947;28;20026;-56
2022/06/17 12:16:37;;;;;;;4.18;2.03;;;32.40;42.90;;;;;;5010657;28;20282;-56
2022/06/17 12:19:05;;;;;;;2.22;1.65;;;32.10;44.40;;;;;;5010540;28;20041;-56
2022/06/17 12:21:33;;;;;;;2.92;1.45;;;32.00;43.80;;;;;;5009943;28;20060;-56
2022/06/17 12:24:26;;;;;;;4.78;1.73;;;31.70;44.40;;;;;;5010760;28;20026;-56
2022/06/17 12:27:05;;;;;;;1.80;1.35;;;31.90;44.50;;;;;;5010850;28;20037;-56
2022/06/17 12:29:44;;;;;;;2.00;1.42;;;31.80;42.70;;;;;;5009889;28;20029;-56
2022/06/17 12:32:23;;;;;;;2.13;1.40;;;31.80;44.00;;;;;;5010303;28;20029;-56
2022/06/17 12:35:15;;;;;;;2.03;1.25;;;31.40;44.40;;;;;;5010624;28;20115;-55
2022/06/17 12:37:55;;;;;;;2.58;1.63;;;31.40;43.80;;;;;;5010534;28;20088;-55
2022/06/17 12:40:29;;;;;;;4.78;1.83;;;31.40;44.20;;;;;;5009623;28;20434;-54
2022/06/17 12:43:14;;;;;;;2.03;1.52;;;30.90;43.60;;;;;;5010184;28;20028;-55
2022/06/17 12:46:24;;;;;;;5.00;1.70;;;30.60;45.90;;;;;;5010133;28;20049;-55
2022/06/17 12:55:22;;;;;;;8.70;1.75;;;30.00;46.40;;;;;;5010157;28;20414;-55
2022/06/17 12:58:15;;;;;;;3.95;1.60;;;30.30;46.00;;;;;;5008772;28;20018;-56
2022/06/17 13:00:46;;;;;;;4.00;1.70;;;30.10;46.30;;;;;;5009531;28;20077;-55
2022/06/17 13:03:32;;;;;;;5.43;2.13;;;30.20;46.00;;;;;;5010118;28;20037;-55
2022/06/17 13:06:10;;;;;;;2.80;1.65;;;30.10;45.50;;;;;;5008633;28;20037;-55
2022/06/17 13:09:05;;;;;;;2.83;1.63;;;29.30;46.20;;;;;;5010100;28;20018;-55
2022/06/17 13:11:42;;;;;;;2.35;1.67;;;29.20;46.50;;;;;;5011434;28;20112;-55
2022/06/17 13:14:29;;;;;;;3.40;1.45;;;28.60;47.50;;;;;;5013620;28;20030;-55
2022/06/17 13:17:04;;;;;;;2.17;1.10;;;28.90;47.50;;;;;;5013756;28;20053;-55
2022/06/17 13:19:38;;;;;;;1.48;1.33;;;28.60;47.10;;;;;;5012011;28;20110;-55
2022/06/17 13:22:07;;;;;;;4.38;1.42;;;28.70;47.10;;;;;;5013871;28;20137;-55
2022/06/17 13:24:44;;;;;;;3.22;1.70;;;28.50;48.30;;;;;;5012415;28;20488;-56
2022/06/17 13:27:52;;;;;;;4.75;1.55;;;28.80;47.70;;;;;;5013668;28;20026;-55
2022/06/17 13:30:26;;;;;;;2.70;1.40;;;29.30;46.50;;;;;;5007292;28;20121;-56
2022/06/17 13:33:03;;;;;;;5.55;1.60;;;29.40;47.00;;;;;;5013712;28;20284;-55
2022/06/17 13:35:39;;;;;;;4.63;1.40;;;29.50;46.60;;;;;;5013542;28;20030;-55